sensor_id;sensor_type;location;lat;lon;timestamp;pressure;altitude;pressure_sealevel;temperature;humidity
75594;BME280;64176;49.156;7.810;2024-03-25T00:01:52;98454.28;;;3.40;100.00
75594;BME280;64176;49.156;7.810;2024-03-25T00:04:38;98456.66;;;3.31;100.00
75594;BME280;64176;49.156;7.810;2024-03-25T00:07:22;98466.44;;;3.12;100.00
75594;BME280;64176;49.156;7.810;2024-03-25T00:10:07;98455.06;;;2.97;100.00
75594;BME280;64176;49.156;7.810;2024-03-25T00:12:54;98471.38;;;3.05;100.00
75594;BME280;64176;49.156;7.810;2024-03-25T00:15:40;98475.75;;;3.09;100.00
75594;BME280;64176;49.156;7.810;2024-03-25T00:18:25;98474.19;;;3.15;100.00
75594;BME280;64176;49.156;7.810;2024-03-25T00:21:09;98469.75;;;3.07;100.00
75594;BME280;64176;49.156;7.810;2024-03-25T00:23:56;98475.63;;;3.04;100.00
75594;BME280;64176;49.156;7.810;2024-03-25T00:26:43;98474.06;;;3.09;100.00
75594;BME280;64176;49.156;7.810;2024-03-25T00:29:26;98472.97;;;3.00;100.00
75594;BME280;64176;49.156;7.810;2024-03-25T00:32:10;98469.94;;;3.16;100.00
75594;BME280;64176;49.156;7.810;2024-03-25T00:34:54;98464.31;;;2.93;100.00
75594;BME280;64176;49.156;7.810;2024-03-25T00:37:38;98456.63;;;2.91;100.00
75594;BME280;64176;49.156;7.810;2024-03-25T00:40:25;98464.44;;;2.99;100.00
75594;BME280;64176;49.156;7.810;2024-03-25T00:43:10;98460.91;;;2.92;100.00
75594;BME280;64176;49.156;7.810;2024-03-25T00:45:56;98450.34;;;2.77;100.00
75594;BME280;64176;49.156;7.810;2024-03-25T00:48:43;98461.47;;;2.81;100.00
75594;BME280;64176;49.156;7.810;2024-03-25T00:51:27;98450.03;;;2.65;100.00
75594;BME280;64176;49.156;7.810;2024-03-25T00:54:13;98464.59;;;2.69;100.00
75594;BME280;64176;49.156;7.810;2024-03-25T00:56:57;98449.97;;;2.61;100.00
75594;BME280;64176;49.156;7.810;2024-03-25T00:59:44;98467.25;;;2.72;100.00
75594;BME280;64176;49.156;7.810;2024-03-25T01:02:28;98466.66;;;2.84;100.00
75594;BME280;64176;49.156;7.810;2024-03-25T01:05:15;98465.69;;;2.79;100.00
75594;BME280;64176;49.156;7.810;2024-03-25T01:07:59;98469.09;;;2.79;100.00
75594;BME280;64176;49.156;7.810;2024-03-25T01:10:45;98457.78;;;2.68;100.00
75594;BME280;64176;49.156;7.810;2024-03-25T01:13:32;98468.28;;;2.80;100.00
75594;BME280;64176;49.156;7.810;2024-03-25T01:16:16;98459.78;;;2.81;100.00
75594;BME280;64176;49.156;7.810;2024-03-25T01:19:05;98463.28;;;2.85;100.00
75594;BME280;64176;49.156;7.810;2024-03-25T01:21:51;98456.38;;;2.81;100.00
75594;BME280;64176;49.156;7.810;2024-03-25T01:24:35;98463.34;;;2.86;100.00
75594;BME280;64176;49.156;7.810;2024-03-25T01:27:19;98464.00;;;2.79;100.00
75594;BME280;64176;49.156;7.810;2024-03-25T01:30:03;98462.88;;;2.68;100.00
75594;BME280;64176;49.156;7.810;2024-03-25T01:32:51;98458.84;;;2.78;100.00
75594;BME280;64176;49.156;7.810;2024-03-25T01:35:37;98461.66;;;2.88;100.00
75594;BME280;64176;49.156;7.810;2024-03-25T01:38:26;98462.47;;;2.87;100.00
75594;BME280;64176;49.156;7.810;2024-03-25T01:41:20;98449.84;;;2.92;100.00
75594;BME280;64176;49.156;7.810;2024-03-25T01:44:06;98455.69;;;2.88;100.00
75594;BME280;64176;49.156;7.810;2024-03-25T01:46:50;98450.81;;;2.99;100.00
75594;BME280;64176;49.156;7.810;2024-03-25T01:49:36;98453.38;;;2.99;100.00
75594;BME280;64176;49.156;7.810;2024-03-25T01:52:26;98449.03;;;2.95;100.00
75594;BME280;64176;49.156;7.810;2024-03-25T01:55:18;98423.06;;;2.73;100.00
75594;BME280;64176;49.156;7.810;2024-03-25T01:58:05;98441.22;;;2.87;100.00
75594;BME280;64176;49.156;7.810;2024-03-25T02:00:50;98441.13;;;2.82;100.00
75594;BME280;64176;49.156;7.810;2024-03-25T02:03:34;98448.75;;;2.82;100.00
75594;BME280;64176;49.156;7.810;2024-03-25T02:06:19;98429.94;;;2.77;100.00
75594;BME280;64176;49.156;7.810;2024-03-25T02:09:06;98448.97;;;2.91;100.00
75594;BME280;64176;49.156;7.810;2024-03-25T02:11:52;98441.00;;;2.78;100.00
75594;BME280;64176;49.156;7.810;2024-03-25T02:14:40;98440.13;;;2.77;100.00
75594;BME280;64176;49.156;7.810;2024-03-25T02:17:26;98435.19;;;2.83;100.00
75594;BME280;64176;49.156;7.810;2024-03-25T02:20:18;98440.81;;;2.70;100.00
75594;BME280;64176;49.156;7.810;2024-03-25T02:23:02;98433.75;;;2.59;100.00
75594;BME280;64176;49.156;7.810;2024-03-25T02:25:50;98431.81;;;2.48;100.00
75594;BME280;64176;49.156;7.810;2024-03-25T02:28:40;98433.50;;;2.48;100.00
75594;BME280;64176;49.156;7.810;2024-03-25T02:31:27;98422.56;;;2.52;100.00
75594;BME280;64176;49.156;7.810;2024-03-25T02:34:13;98425.72;;;2.43;100.00
75594;BME280;64176;49.156;7.810;2024-03-25T02:37:00;98420.63;;;2.43;100.00
75594;BME280;64176;49.156;7.810;2024-03-25T02:39:44;98407.75;;;2.37;100.00
75594;BME280;64176;49.156;7.810;2024-03-25T02:42:33;98425.41;;;2.30;100.00
75594;BME280;64176;49.156;7.810;2024-03-25T02:45:17;98423.47;;;2.19;100.00
75594;BME280;64176;49.156;7.810;2024-03-25T02:48:07;98417.88;;;2.34;100.00
75594;BME280;64176;49.156;7.810;2024-03-25T02:50:53;98422.25;;;2.40;100.00
75594;BME280;64176;49.156;7.810;2024-03-25T02:53:40;98417.81;;;2.31;100.00
75594;BME280;64176;49.156;7.810;2024-03-25T02:56:26;98417.22;;;2.41;100.00
75594;BME280;64176;49.156;7.810;2024-03-25T02:59:13;98419.72;;;2.05;100.00
75594;BME280;64176;49.156;7.810;2024-03-25T03:01:57;98425.03;;;2.14;100.00
75594;BME280;64176;49.156;7.810;2024-03-25T03:04:43;98425.41;;;2.30;100.00
75594;BME280;64176;49.156;7.810;2024-03-25T03:07:27;98434.63;;;2.25;100.00
75594;BME280;64176;49.156;7.810;2024-03-25T03:10:11;98429.53;;;2.25;100.00
75594;BME280;64176;49.156;7.810;2024-03-25T03:12:57;98439.00;;;1.96;100.00
75594;BME280;64176;49.156;7.810;2024-03-25T03:15:44;98426.06;;;1.90;100.00
75594;BME280;64176;49.156;7.810;2024-03-25T03:18:28;98427.97;;;1.97;100.00
75594;BME280;64176;49.156;7.810;2024-03-25T03:21:12;98442.44;;;1.98;100.00
75594;BME280;64176;49.156;7.810;2024-03-25T03:23:59;98441.38;;;1.90;100.00
75594;BME280;64176;49.156;7.810;2024-03-25T03:26:43;98448.47;;;2.01;100.00
75594;BME280;64176;49.156;7.810;2024-03-25T03:29:32;98435.66;;;1.98;100.00
75594;BME280;64176;49.156;7.810;2024-03-25T03:32:19;98442.72;;;2.08;100.00
75594;BME280;64176;49.156;7.810;2024-03-25T03:35:03;98437.34;;;1.98;100.00
75594;BME280;64176;49.156;7.810;2024-03-25T03:37:48;98422.03;;;1.65;100.00
75594;BME280;64176;49.156;7.810;2024-03-25T03:40:37;98449.28;;;1.69;100.00
75594;BME280;64176;49.156;7.810;2024-03-25T03:43:21;98441.94;;;1.79;100.00
75594;BME280;64176;49.156;7.810;2024-03-25T03:46:05;98437.94;;;1.88;100.00
75594;BME280;64176;49.156;7.810;2024-03-25T03:48:54;98438.28;;;2.01;100.00
75594;BME280;64176;49.156;7.810;2024-03-25T03:51:44;98439.84;;;1.96;100.00
75594;BME280;64176;49.156;7.810;2024-03-25T03:54:28;98428.09;;;1.70;100.00
75594;BME280;64176;49.156;7.810;2024-03-25T03:57:12;98437.03;;;1.86;100.00
75594;BME280;64176;49.156;7.810;2024-03-25T03:59:56;98436.28;;;1.58;100.00
75594;BME280;64176;49.156;7.810;2024-03-25T04:02:40;98434.81;;;1.36;100.00
75594;BME280;64176;49.156;7.810;2024-03-25T04:05:28;98434.69;;;1.62;100.00
75594;BME280;64176;49.156;7.810;2024-03-25T04:08:12;98442.66;;;1.74;100.00
75594;BME280;64176;49.156;7.810;2024-03-25T04:11:01;98442.47;;;1.68;100.00
75594;BME280;64176;49.156;7.810;2024-03-25T04:13:48;98440.75;;;1.67;100.00
75594;BME280;64176;49.156;7.810;2024-03-25T04:16:32;98434.78;;;1.65;100.00
75594;BME280;64176;49.156;7.810;2024-03-25T04:19:23;98437.13;;;1.59;100.00
75594;BME280;64176;49.156;7.810;2024-03-25T04:22:07;98437.91;;;1.55;100.00
75594;BME280;64176;49.156;7.810;2024-03-25T04:24:54;98437.03;;;1.54;100.00
75594;BME280;64176;49.156;7.810;2024-03-25T04:27:38;98430.25;;;1.55;100.00
75594;BME280;64176;49.156;7.810;2024-03-25T04:30:22;98435.22;;;1.50;100.00
75594;BME280;64176;49.156;7.810;2024-03-25T04:33:11;98431.28;;;1.31;100.00
75594;BME280;64176;49.156;7.810;2024-03-25T04:35:55;98427.19;;;1.06;100.00
75594;BME280;64176;49.156;7.810;2024-03-25T04:38:40;98420.88;;;1.24;100.00
75594;BME280;64176;49.156;7.810;2024-03-25T04:41:24;98428.75;;;1.31;100.00
75594;BME280;64176;49.156;7.810;2024-03-25T04:44:07;98431.31;;;1.33;100.00
75594;BME280;64176;49.156;7.810;2024-03-25T04:46:56;98415.75;;;1.22;100.00
75594;BME280;64176;49.156;7.810;2024-03-25T04:49:43;98431.25;;;1.30;100.00
75594;BME280;64176;49.156;7.810;2024-03-25T04:52:27;98432.03;;;1.27;100.00
75594;BME280;64176;49.156;7.810;2024-03-25T04:55:14;98442.03;;;1.21;100.00
75594;BME280;64176;49.156;7.810;2024-03-25T04:57:58;98435.84;;;1.13;100.00
75594;BME280;64176;49.156;7.810;2024-03-25T05:00:44;98439.28;;;1.15;100.00
75594;BME280;64176;49.156;7.810;2024-03-25T05:03:34;98448.50;;;1.10;100.00
75594;BME280;64176;49.156;7.810;2024-03-25T05:06:18;98441.53;;;1.04;100.00
75594;BME280;64176;49.156;7.810;2024-03-25T05:09:02;98450.03;;;1.05;100.00
75594;BME280;64176;49.156;7.810;2024-03-25T05:11:46;98450.06;;;1.06;100.00
75594;BME280;64176;49.156;7.810;2024-03-25T05:14:30;98445.75;;;1.04;100.00
75594;BME280;64176;49.156;7.810;2024-03-25T05:17:14;98450.56;;;0.95;100.00
75594;BME280;64176;49.156;7.810;2024-03-25T05:20:01;98448.34;;;1.05;100.00
75594;BME280;64176;49.156;7.810;2024-03-25T05:22:44;98456.03;;;0.80;100.00
75594;BME280;64176;49.156;7.810;2024-03-25T05:25:31;98457.38;;;0.96;100.00
75594;BME280;64176;49.156;7.810;2024-03-25T05:28:15;98451.66;;;1.03;100.00
75594;BME280;64176;49.156;7.810;2024-03-25T05:31:08;98447.56;;;1.08;100.00
75594;BME280;64176;49.156;7.810;2024-03-25T05:33:55;98439.03;;;1.06;100.00
75594;BME280;64176;49.156;7.810;2024-03-25T05:36:39;98449.31;;;1.09;100.00
75594;BME280;64176;49.156;7.810;2024-03-25T05:39:23;98450.25;;;1.13;100.00
75594;BME280;64176;49.156;7.810;2024-03-25T05:42:07;98448.78;;;0.92;100.00
75594;BME280;64176;49.156;7.810;2024-03-25T05:44:51;98450.16;;;1.09;100.00
75594;BME280;64176;49.156;7.810;2024-03-25T05:47:35;98443.34;;;1.08;100.00
75594;BME280;64176;49.156;7.810;2024-03-25T05:50:21;98445.81;;;0.77;100.00
75594;BME280;64176;49.156;7.810;2024-03-25T05:53:05;98443.75;;;0.67;100.00
75594;BME280;64176;49.156;7.810;2024-03-25T05:55:49;98459.81;;;0.64;100.00
75594;BME280;64176;49.156;7.810;2024-03-25T05:58:37;98455.75;;;0.98;100.00
75594;BME280;64176;49.156;7.810;2024-03-25T06:01:21;98467.19;;;1.12;100.00
75594;BME280;64176;49.156;7.810;2024-03-25T06:04:07;98461.53;;;1.22;100.00
75594;BME280;64176;49.156;7.810;2024-03-25T06:06:53;98463.22;;;1.22;100.00
75594;BME280;64176;49.156;7.810;2024-03-25T06:09:37;98458.13;;;1.20;100.00
75594;BME280;64176;49.156;7.810;2024-03-25T06:12:24;98456.56;;;1.25;100.00
75594;BME280;64176;49.156;7.810;2024-03-25T06:15:08;98458.53;;;1.35;100.00
75594;BME280;64176;49.156;7.810;2024-03-25T06:17:54;98461.91;;;1.34;100.00
75594;BME280;64176;49.156;7.810;2024-03-25T06:20:46;98461.28;;;1.41;100.00
75594;BME280;64176;49.156;7.810;2024-03-25T06:23:35;98470.25;;;1.29;100.00
75594;BME280;64176;49.156;7.810;2024-03-25T06:26:19;98472.94;;;1.35;100.00
75594;BME280;64176;49.156;7.810;2024-03-25T06:29:03;98465.56;;;1.42;100.00
75594;BME280;64176;49.156;7.810;2024-03-25T06:31:47;98475.59;;;1.38;100.00
75594;BME280;64176;49.156;7.810;2024-03-25T06:34:50;98470.00;;;1.50;100.00
75594;BME280;64176;49.156;7.810;2024-03-25T06:37:39;98468.78;;;1.37;100.00
75594;BME280;64176;49.156;7.810;2024-03-25T06:40:28;98467.28;;;1.43;100.00
75594;BME280;64176;49.156;7.810;2024-03-25T06:43:12;98453.66;;;1.41;100.00
75594;BME280;64176;49.156;7.810;2024-03-25T06:46:00;98465.81;;;1.52;100.00
75594;BME280;64176;49.156;7.810;2024-03-25T06:48:47;98462.88;;;1.38;100.00
75594;BME280;64176;49.156;7.810;2024-03-25T06:51:31;98456.84;;;1.36;100.00
75594;BME280;64176;49.156;7.810;2024-03-25T06:54:15;98463.94;;;1.46;100.00
75594;BME280;64176;49.156;7.810;2024-03-25T06:57:04;98462.41;;;1.51;100.00
75594;BME280;64176;49.156;7.810;2024-03-25T06:59:50;98474.41;;;1.57;100.00
75594;BME280;64176;49.156;7.810;2024-03-25T07:02:40;98473.66;;;1.59;100.00
75594;BME280;64176;49.156;7.810;2024-03-25T07:05:28;98460.31;;;1.68;100.00
75594;BME280;64176;49.156;7.810;2024-03-25T07:08:15;98448.19;;;1.91;100.00
75594;BME280;64176;49.156;7.810;2024-03-25T07:10:59;98457.97;;;2.40;100.00
75594;BME280;64176;49.156;7.810;2024-03-25T07:13:44;98451.03;;;2.36;100.00
75594;BME280;64176;49.156;7.810;2024-03-25T07:16:33;98449.13;;;2.62;100.00
75594;BME280;64176;49.156;7.810;2024-03-25T07:19:19;98441.94;;;2.81;100.00
75594;BME280;64176;49.156;7.810;2024-03-25T07:22:03;98433.53;;;2.85;100.00
75594;BME280;64176;49.156;7.810;2024-03-25T07:24:47;98436.16;;;3.27;100.00
75594;BME280;64176;49.156;7.810;2024-03-25T07:27:31;98432.81;;;4.22;100.00
75594;BME280;64176;49.156;7.810;2024-03-25T07:30:20;98431.44;;;4.95;100.00
75594;BME280;64176;49.156;7.810;2024-03-25T07:33:11;98424.78;;;5.77;100.00
75594;BME280;64176;49.156;7.810;2024-03-25T07:35:58;98433.16;;;5.64;100.00
75594;BME280;64176;49.156;7.810;2024-03-25T07:38:42;98434.56;;;6.07;100.00
75594;BME280;64176;49.156;7.810;2024-03-25T07:41:27;98415.47;;;6.80;100.00
75594;BME280;64176;49.156;7.810;2024-03-25T07:44:13;98425.34;;;7.60;100.00
75594;BME280;64176;49.156;7.810;2024-03-25T07:46:57;98424.47;;;7.64;100.00
75594;BME280;64176;49.156;7.810;2024-03-25T07:49:41;98418.56;;;7.91;100.00
75594;BME280;64176;49.156;7.810;2024-03-25T07:52:30;98413.47;;;8.29;100.00
75594;BME280;64176;49.156;7.810;2024-03-25T07:55:20;98422.03;;;8.13;100.00
75594;BME280;64176;49.156;7.810;2024-03-25T07:58:04;98419.19;;;7.26;100.00
75594;BME280;64176;49.156;7.810;2024-03-25T08:00:50;98412.97;;;6.91;100.00
75594;BME280;64176;49.156;7.810;2024-03-25T08:03:37;98428.56;;;6.06;100.00
75594;BME280;64176;49.156;7.810;2024-03-25T08:06:23;98422.50;;;6.01;100.00
75594;BME280;64176;49.156;7.810;2024-03-25T08:09:07;98414.19;;;6.25;100.00
75594;BME280;64176;49.156;7.810;2024-03-25T08:11:53;98411.47;;;6.07;100.00
75594;BME280;64176;49.156;7.810;2024-03-25T08:14:37;98415.91;;;6.26;100.00
75594;BME280;64176;49.156;7.810;2024-03-25T08:17:26;98417.72;;;6.41;100.00
75594;BME280;64176;49.156;7.810;2024-03-25T08:20:11;98430.41;;;6.22;100.00
75594;BME280;64176;49.156;7.810;2024-03-25T08:22:55;98416.66;;;6.14;100.00
75594;BME280;64176;49.156;7.810;2024-03-25T08:25:39;98415.16;;;6.41;100.00
75594;BME280;64176;49.156;7.810;2024-03-25T08:28:26;98408.22;;;6.28;100.00
75594;BME280;64176;49.156;7.810;2024-03-25T08:31:10;98404.91;;;6.38;100.00
75594;BME280;64176;49.156;7.810;2024-03-25T08:33:56;98404.19;;;6.58;100.00
75594;BME280;64176;49.156;7.810;2024-03-25T08:36:40;98407.47;;;6.39;100.00
75594;BME280;64176;49.156;7.810;2024-03-25T08:39:24;98402.00;;;6.01;100.00
75594;BME280;64176;49.156;7.810;2024-03-25T08:42:08;98398.00;;;6.29;100.00
75594;BME280;64176;49.156;7.810;2024-03-25T08:44:54;98405.75;;;6.41;100.00
75594;BME280;64176;49.156;7.810;2024-03-25T08:47:38;98395.63;;;6.58;100.00
75594;BME280;64176;49.156;7.810;2024-03-25T08:50:27;98398.16;;;6.50;100.00
75594;BME280;64176;49.156;7.810;2024-03-25T08:53:11;98389.47;;;6.36;100.00
75594;BME280;64176;49.156;7.810;2024-03-25T08:55:55;98370.50;;;6.16;100.00
75594;BME280;64176;49.156;7.810;2024-03-25T08:58:42;98367.25;;;6.37;100.00
75594;BME280;64176;49.156;7.810;2024-03-25T09:01:29;98356.09;;;6.35;100.00
75594;BME280;64176;49.156;7.810;2024-03-25T09:04:17;98361.38;;;6.53;100.00
75594;BME280;64176;49.156;7.810;2024-03-25T09:07:01;98351.97;;;6.53;100.00
75594;BME280;64176;49.156;7.810;2024-03-25T09:09:47;98339.31;;;6.81;100.00
75594;BME280;64176;49.156;7.810;2024-03-25T09:12:53;98338.38;;;6.74;100.00
75594;BME280;64176;49.156;7.810;2024-03-25T09:15:39;98329.09;;;6.94;100.00
75594;BME280;64176;49.156;7.810;2024-03-25T09:18:23;98327.47;;;7.15;100.00
75594;BME280;64176;49.156;7.810;2024-03-25T09:21:07;98325.72;;;7.09;100.00
75594;BME280;64176;49.156;7.810;2024-03-25T09:23:51;98318.94;;;7.29;100.00
75594;BME280;64176;49.156;7.810;2024-03-25T09:26:35;98327.56;;;7.45;100.00
75594;BME280;64176;49.156;7.810;2024-03-25T09:29:22;98317.34;;;7.60;100.00
75594;BME280;64176;49.156;7.810;2024-03-25T09:32:06;98313.91;;;7.66;100.00
75594;BME280;64176;49.156;7.810;2024-03-25T09:34:51;98301.81;;;7.31;100.00
75594;BME280;64176;49.156;7.810;2024-03-25T09:37:35;98308.78;;;7.61;100.00
75594;BME280;64176;49.156;7.810;2024-03-25T09:40:22;98300.19;;;7.58;100.00
75594;BME280;64176;49.156;7.810;2024-03-25T09:43:32;98283.06;;;7.71;100.00
75594;BME280;64176;49.156;7.810;2024-03-25T09:46:16;98295.06;;;7.68;100.00
75594;BME280;64176;49.156;7.810;2024-03-25T09:49:00;98298.50;;;7.98;100.00
75594;BME280;64176;49.156;7.810;2024-03-25T09:51:49;98280.50;;;7.90;100.00
75594;BME280;64176;49.156;7.810;2024-03-25T09:54:33;98283.91;;;7.76;100.00
75594;BME280;64176;49.156;7.810;2024-03-25T09:57:20;98281.34;;;7.97;100.00
75594;BME280;64176;49.156;7.810;2024-03-25T10:00:09;98271.06;;;8.14;100.00
75594;BME280;64176;49.156;7.810;2024-03-25T10:02:57;98262.44;;;8.51;100.00
75594;BME280;64176;49.156;7.810;2024-03-25T10:05:41;98255.59;;;8.46;95.17
75594;BME280;64176;49.156;7.810;2024-03-25T10:08:26;98253.88;;;8.31;93.84
75594;BME280;64176;49.156;7.810;2024-03-25T10:11:15;98252.13;;;8.65;87.29
75594;BME280;64176;49.156;7.810;2024-03-25T10:13:59;98257.28;;;8.53;81.86
75594;BME280;64176;49.156;7.810;2024-03-25T10:16:43;98246.16;;;8.48;84.96
75594;BME280;64176;49.156;7.810;2024-03-25T10:19:30;98231.56;;;8.40;82.75
75594;BME280;64176;49.156;7.810;2024-03-25T10:22:17;98240.19;;;8.35;85.40
75594;BME280;64176;49.156;7.810;2024-03-25T10:25:01;98248.78;;;8.14;82.34
75594;BME280;64176;49.156;7.810;2024-03-25T10:27:53;98220.44;;;8.25;86.45
75594;BME280;64176;49.156;7.810;2024-03-25T10:30:40;98223.88;;;8.27;83.54
75594;BME280;64176;49.156;7.810;2024-03-25T10:33:25;98226.44;;;8.28;81.40
75594;BME280;64176;49.156;7.810;2024-03-25T10:36:10;98217.00;;;8.23;80.96
75594;BME280;64176;49.156;7.810;2024-03-25T10:38:55;98221.28;;;8.22;81.50
75594;BME280;64176;49.156;7.810;2024-03-25T10:41:40;98216.97;;;8.39;82.92
75594;BME280;64176;49.156;7.810;2024-03-25T10:44:26;98202.41;;;8.43;80.67
75594;BME280;64176;49.156;7.810;2024-03-25T10:47:16;98198.94;;;8.55;80.89
75594;BME280;64176;49.156;7.810;2024-03-25T10:50:09;98197.16;;;8.66;81.44
75594;BME280;64176;49.156;7.810;2024-03-25T10:53:04;98195.44;;;8.68;79.51
75594;BME280;64176;49.156;7.810;2024-03-25T10:55:54;98191.97;;;8.75;79.63
75594;BME280;64176;49.156;7.810;2024-03-25T10:58:42;98175.59;;;8.87;81.02
75594;BME280;64176;49.156;7.810;2024-03-25T11:01:28;98177.31;;;8.86;78.35
75594;BME280;64176;49.156;7.810;2024-03-25T11:04:13;98177.97;;;9.26;79.09
75594;BME280;64176;49.156;7.810;2024-03-25T11:07:13;98159.44;;;9.82;78.34
75594;BME280;64176;49.156;7.810;2024-03-25T11:10:05;98150.00;;;9.83;78.36
75594;BME280;64176;49.156;7.810;2024-03-25T11:12:50;98144.97;;;9.66;74.73
75594;BME280;64176;49.156;7.810;2024-03-25T11:15:42;98148.47;;;9.61;72.01
75594;BME280;64176;49.156;7.810;2024-03-25T11:18:27;98135.50;;;9.67;71.68
75594;BME280;64176;49.156;7.810;2024-03-25T11:21:13;98146.59;;;10.59;75.14
75594;BME280;64176;49.156;7.810;2024-03-25T11:24:06;98138.28;;;10.33;62.62
75594;BME280;64176;49.156;7.810;2024-03-25T11:26:53;98136.66;;;10.27;59.83
75594;BME280;64176;49.156;7.810;2024-03-25T11:29:39;98136.59;;;10.30;64.12
75594;BME280;64176;49.156;7.810;2024-03-25T11:32:25;98124.84;;;10.02;65.41
75594;BME280;64176;49.156;7.810;2024-03-25T11:35:15;98130.03;;;9.99;68.88
75594;BME280;64176;49.156;7.810;2024-03-25T11:37:59;98118.84;;;9.97;67.02
75594;BME280;64176;49.156;7.810;2024-03-25T11:40:45;98111.09;;;10.01;64.25
75594;BME280;64176;49.156;7.810;2024-03-25T11:43:32;98089.19;;;10.37;61.79
75594;BME280;64176;49.156;7.810;2024-03-25T11:46:18;98101.75;;;10.63;61.65
75594;BME280;64176;49.156;7.810;2024-03-25T11:49:06;98096.66;;;10.58;59.81
75594;BME280;64176;49.156;7.810;2024-03-25T11:51:52;98087.34;;;10.45;61.30
75594;BME280;64176;49.156;7.810;2024-03-25T11:54:36;98081.59;;;10.25;62.65
75594;BME280;64176;49.156;7.810;2024-03-25T11:57:23;98090.53;;;9.94;61.72
75594;BME280;64176;49.156;7.810;2024-03-25T12:00:07;98082.47;;;10.21;60.60
75594;BME280;64176;49.156;7.810;2024-03-25T12:03:06;98071.75;;;10.51;59.64
75594;BME280;64176;49.156;7.810;2024-03-25T12:05:56;98060.78;;;10.36;56.51
75594;BME280;64176;49.156;7.810;2024-03-25T12:08:41;98055.97;;;10.73;58.31
75594;BME280;64176;49.156;7.810;2024-03-25T12:11:45;98049.72;;;10.87;57.00
75594;BME280;64176;49.156;7.810;2024-03-25T12:14:29;98040.78;;;11.07;55.10
75594;BME280;64176;49.156;7.810;2024-03-25T12:17:16;98045.34;;;10.92;52.48
75594;BME280;64176;49.156;7.810;2024-03-25T12:20:04;98041.22;;;10.81;53.72
75594;BME280;64176;49.156;7.810;2024-03-25T12:22:49;98034.44;;;10.72;51.38
75594;BME280;64176;49.156;7.810;2024-03-25T12:25:33;98033.09;;;10.47;52.06
75594;BME280;64176;49.156;7.810;2024-03-25T12:28:18;98017.66;;;10.42;52.96
75594;BME280;64176;49.156;7.810;2024-03-25T12:31:07;98017.28;;;10.68;52.68
75594;BME280;64176;49.156;7.810;2024-03-25T12:33:58;98017.97;;;10.81;52.37
75594;BME280;64176;49.156;7.810;2024-03-25T12:36:44;98001.53;;;10.83;51.52
75594;BME280;64176;49.156;7.810;2024-03-25T12:39:29;97987.97;;;10.71;51.11
75594;BME280;64176;49.156;7.810;2024-03-25T12:42:18;97980.28;;;10.65;52.46
75594;BME280;64176;49.156;7.810;2024-03-25T12:45:08;97987.50;;;10.44;51.79
75594;BME280;64176;49.156;7.810;2024-03-25T12:47:52;97976.31;;;10.44;52.38
75594;BME280;64176;49.156;7.810;2024-03-25T12:50:39;97967.06;;;10.84;51.00
75594;BME280;64176;49.156;7.810;2024-03-25T12:53:25;97965.97;;;10.98;50.58
75594;BME280;64176;49.156;7.810;2024-03-25T12:56:12;97973.66;;;11.04;48.47
75594;BME280;64176;49.156;7.810;2024-03-25T12:58:59;97954.94;;;10.88;47.00
75594;BME280;64176;49.156;7.810;2024-03-25T13:01:45;97945.47;;;10.88;47.52
75594;BME280;64176;49.156;7.810;2024-03-25T13:04:32;97940.97;;;11.00;48.29
75594;BME280;64176;49.156;7.810;2024-03-25T13:07:18;97935.22;;;11.30;48.87
75594;BME280;64176;49.156;7.810;2024-03-25T13:10:02;97922.53;;;11.18;49.79
75594;BME280;64176;49.156;7.810;2024-03-25T13:12:49;97920.22;;;11.03;50.93
75594;BME280;64176;49.156;7.810;2024-03-25T13:15:36;97886.75;;;10.93;50.75
75594;BME280;64176;49.156;7.810;2024-03-25T13:18:20;97906.28;;;11.11;50.64
75594;BME280;64176;49.156;7.810;2024-03-25T13:21:04;97909.88;;;11.04;49.93
75594;BME280;64176;49.156;7.810;2024-03-25T13:23:51;97899.31;;;11.15;51.46
75594;BME280;64176;49.156;7.810;2024-03-25T13:26:35;97898.88;;;11.38;49.95
75594;BME280;64176;49.156;7.810;2024-03-25T13:29:22;97894.06;;;11.19;48.79
75594;BME280;64176;49.156;7.810;2024-03-25T13:32:05;97886.78;;;11.38;49.30
75594;BME280;64176;49.156;7.810;2024-03-25T13:34:52;97897.91;;;11.43;50.03
75594;BME280;64176;49.156;7.810;2024-03-25T13:37:39;97890.41;;;11.29;49.74
75594;BME280;64176;49.156;7.810;2024-03-25T13:40:23;97884.53;;;11.64;49.79
75594;BME280;64176;49.156;7.810;2024-03-25T13:43:07;97890.09;;;11.46;48.23
75594;BME280;64176;49.156;7.810;2024-03-25T13:45:53;97874.13;;;11.26;48.16
75594;BME280;64176;49.156;7.810;2024-03-25T13:48:37;97871.63;;;10.72;49.05
75594;BME280;64176;49.156;7.810;2024-03-25T13:51:21;97864.53;;;11.29;49.45
75594;BME280;64176;49.156;7.810;2024-03-25T13:54:12;97857.63;;;11.30;49.50
75594;BME280;64176;49.156;7.810;2024-03-25T13:56:59;97853.47;;;11.23;47.87
75594;BME280;64176;49.156;7.810;2024-03-25T13:59:43;97846.88;;;11.08;48.48
75594;BME280;64176;49.156;7.810;2024-03-25T14:02:27;97835.78;;;11.03;47.71
75594;BME280;64176;49.156;7.810;2024-03-25T14:05:12;97841.19;;;11.34;48.60
75594;BME280;64176;49.156;7.810;2024-03-25T14:07:56;97826.06;;;11.14;48.68
75594;BME280;64176;49.156;7.810;2024-03-25T14:10:45;97823.94;;;11.35;48.50
75594;BME280;64176;49.156;7.810;2024-03-25T14:13:31;97819.91;;;11.20;47.66
75594;BME280;64176;49.156;7.810;2024-03-25T14:16:15;97811.13;;;11.27;48.17
75594;BME280;64176;49.156;7.810;2024-03-25T14:19:03;97802.63;;;11.22;48.08
75594;BME280;64176;49.156;7.810;2024-03-25T14:21:48;97801.78;;;11.21;47.38
75594;BME280;64176;49.156;7.810;2024-03-25T14:24:37;97799.69;;;10.97;46.86
75594;BME280;64176;49.156;7.810;2024-03-25T14:27:22;97787.38;;;11.10;48.25
75594;BME280;64176;49.156;7.810;2024-03-25T14:30:14;97786.81;;;11.37;48.35
75594;BME280;64176;49.156;7.810;2024-03-25T14:32:59;97785.00;;;11.41;47.96
75594;BME280;64176;49.156;7.810;2024-03-25T14:35:43;97780.03;;;11.31;48.59
75594;BME280;64176;49.156;7.810;2024-03-25T14:38:31;97778.75;;;11.09;47.63
75594;BME280;64176;49.156;7.810;2024-03-25T14:41:21;97769.09;;;11.17;46.96